Time;durP1;ratioP1;P1;durP2;ratioP2;P2;SDS_P1;SDS_P2;PMS_P1;PMS_P2;Temp;Humidity;BMP_temperature;BMP_pressure;BME280_temperature;BME280_humidity;BME280_pressure;Samples;Min_cycle;Max_cycle;Signal;HPM_P1;HPM_P2
2021/08/19 00:02:20;;;;;;;314.30;299.80;;;;;;;;;;4975755;28;20455;-72
2021/08/19 00:04:51;;;;;;;311.43;297.23;;;;;;;;;;4977088;28;20455;-72
2021/08/19 00:07:18;;;;;;;301.50;287.50;;;;;;;;;;4976550;28;20913;-71
2021/08/19 00:09:45;;;;;;;297.90;284.13;;;;;;;;;;4975932;28;20447;-72
2021/08/19 00:12:12;;;;;;;306.47;292.43;;;;;;;;;;4976396;28;20455;-72
2021/08/19 00:14:40;;;;;;;309.70;295.10;;;;;;;;;;4975110;28;20462;-72
2021/08/19 00:17:08;;;;;;;304.90;291.10;;;;;;;;;;4975768;28;20475;-72
2021/08/19 00:19:35;;;;;;;294.80;281.40;;;;;;;;;;4975952;28;20483;-72
2021/08/19 00:22:04;;;;;;;309.70;295.80;;;;;;;;;;4976485;28;20515;-72
2021/08/19 00:24:32;;;;;;;302.03;288.63;;;;;;;;;;4975862;28;20459;-73
2021/08/19 00:26:59;;;;;;;298.97;285.47;;;;;;;;;;4975077;28;20471;-72
2021/08/19 00:29:26;;;;;;;296.17;282.70;;;;;;;;;;4971968;28;20450;-71
2021/08/19 00:31:53;;;;;;;304.63;291.13;;;;;;;;;;4974061;28;20464;-72
2021/08/19 00:34:20;;;;;;;301.33;287.73;;;;;;;;;;4974384;28;20952;-72
2021/08/19 00:36:47;;;;;;;308.60;294.70;;;;;;;;;;4968141;28;20487;-72
2021/08/19 00:39:16;;;;;;;300.40;286.90;;;;;;;;;;4956926;28;20823;-73
2021/08/19 00:41:43;;;;;;;302.90;289.27;;;;;;;;;;4963220;28;20460;-72
2021/08/19 00:44:10;;;;;;;309.37;294.97;;;;;;;;;;4978412;28;20462;-73
2021/08/19 00:46:38;;;;;;;312.57;298.17;;;;;;;;;;4977324;28;20486;-72
2021/08/19 00:49:06;;;;;;;320.13;305.73;;;;;;;;;;4976036;28;20462;-72
2021/08/19 00:51:35;;;;;;;318.50;304.00;;;;;;;;;;4976215;28;20925;-73
2021/08/19 00:54:02;;;;;;;312.70;297.77;;;;;;;;;;4978075;28;20451;-75
2021/08/19 00:56:31;;;;;;;321.80;307.00;;;;;;;;;;4978141;28;20471;-72
2021/08/19 00:58:58;;;;;;;321.97;306.90;;;;;;;;;;4978958;28;20473;-72
2021/08/19 01:01:25;;;;;;;312.87;298.37;;;;;;;;;;4978559;28;20483;-71
2021/08/19 01:03:54;;;;;;;298.90;285.20;;;;;;;;;;4977284;28;20463;-72
2021/08/19 01:06:22;;;;;;;303.83;289.73;;;;;;;;;;4978819;28;21056;-72
2021/08/19 01:08:49;;;;;;;310.63;296.27;;;;;;;;;;4980811;28;20458;-71
2021/08/19 01:11:16;;;;;;;299.23;285.63;;;;;;;;;;4982069;28;20461;-71
2021/08/19 01:13:45;;;;;;;302.97;289.47;;;;;;;;;;4980155;28;20837;-71
2021/08/19 01:16:12;;;;;;;297.57;284.37;;;;;;;;;;4977405;28;20482;-72
2021/08/19 01:18:40;;;;;;;296.93;283.50;;;;;;;;;;4977161;28;20451;-71
2021/08/19 01:21:07;;;;;;;286.83;273.93;;;;;;;;;;4976179;28;20497;-72
2021/08/19 01:23:35;;;;;;;289.60;276.70;;;;;;;;;;4976675;28;20455;-72
2021/08/19 01:26:03;;;;;;;291.27;278.30;;;;;;;;;;4976807;28;20468;-72
2021/08/19 01:28:32;;;;;;;285.73;272.83;;;;;;;;;;4976868;28;20971;-72
2021/08/19 01:30:59;;;;;;;280.20;267.60;;;;;;;;;;4964408;28;20462;-72
2021/08/19 01:33:27;;;;;;;285.73;272.83;;;;;;;;;;4957683;29;20462;-72
2021/08/19 01:35:55;;;;;;;278.23;265.73;;;;;;;;;;4967975;28;21002;-72
2021/08/19 01:38:29;;;;;;;277.47;265.20;;;;;;;;;;4976851;28;20455;-72
2021/08/19 01:40:56;;;;;;;284.67;272.37;;;;;;;;;;4976012;28;20899;-72
2021/08/19 01:43:24;;;;;;;283.30;271.20;;;;;;;;;;4976454;28;20451;-71
2021/08/19 01:45:53;;;;;;;279.80;267.63;;;;;;;;;;4975263;28;20948;-71
2021/08/19 01:48:20;;;;;;;273.63;261.93;;;;;;;;;;4968346;28;20457;-72
2021/08/19 01:50:48;;;;;;;276.30;264.30;;;;;;;;;;4972126;28;20461;-71
2021/08/19 01:53:15;;;;;;;272.37;260.40;;;;;;;;;;4976523;28;20456;-71
2021/08/19 01:55:42;;;;;;;266.70;255.10;;;;;;;;;;4981267;28;20467;-71
2021/08/19 01:58:09;;;;;;;276.37;264.37;;;;;;;;;;4981249;28;20459;-72
2021/08/19 02:00:37;;;;;;;281.40;269.23;;;;;;;;;;4971218;28;20489;-72
2021/08/19 02:03:06;;;;;;;272.00;260.60;;;;;;;;;;4981518;28;20457;-72
2021/08/19 02:05:33;;;;;;;276.87;263.47;;;;;;;;;;4982251;28;20566;-72
2021/08/19 02:08:00;;;;;;;269.10;257.10;;;;;;;;;;4982820;28;20830;-72
2021/08/19 02:10:27;;;;;;;261.93;250.60;;;;;;;;;;4979833;28;20452;-72
2021/08/19 02:12:54;;;;;;;258.40;247.10;;;;;;;;;;4977725;28;20804;-73
2021/08/19 02:15:21;;;;;;;258.70;247.50;;;;;;;;;;4981003;28;20476;-72
2021/08/19 02:17:48;;;;;;;250.60;239.70;;;;;;;;;;4979472;28;20454;-71
2021/08/19 02:20:17;;;;;;;257.70;246.63;;;;;;;;;;4981072;28;20487;-72
2021/08/19 02:22:44;;;;;;;261.57;250.37;;;;;;;;;;4980361;28;20467;-71
2021/08/19 02:25:11;;;;;;;266.33;254.77;;;;;;;;;;4979388;28;20451;-71
2021/08/19 02:27:39;;;;;;;271.47;259.97;;;;;;;;;;4979453;28;20455;-71
2021/08/19 02:30:06;;;;;;;257.67;246.37;;;;;;;;;;4980187;28;20451;-71
2021/08/19 02:32:33;;;;;;;269.60;258.00;;;;;;;;;;4978518;28;20469;-71
2021/08/19 02:35:00;;;;;;;264.30;253.20;;;;;;;;;;4979045;28;20456;-72
2021/08/19 02:37:29;;;;;;;256.37;245.27;;;;;;;;;;4979404;28;20455;-73
2021/08/19 02:39:56;;;;;;;247.63;236.93;;;;;;;;;;4978229;28;20493;-73
2021/08/19 02:42:24;;;;;;;245.10;234.90;;;;;;;;;;4976291;28;20456;-72
2021/08/19 02:44:51;;;;;;;251.70;240.60;;;;;;;;;;4979448;28;20447;-73
2021/08/19 02:47:18;;;;;;;263.30;252.10;;;;;;;;;;4979816;28;20485;-72
2021/08/19 02:49:47;;;;;;;256.87;246.17;;;;;;;;;;4980604;28;20490;-73
2021/08/19 02:52:14;;;;;;;247.50;237.23;;;;;;;;;;4979540;28;20447;-73
2021/08/19 02:54:43;;;;;;;262.73;251.63;;;;;;;;;;4979200;28;20458;-72
2021/08/19 02:57:10;;;;;;;262.67;251.40;;;;;;;;;;4980704;28;20468;-73
2021/08/19 02:59:37;;;;;;;256.13;244.80;;;;;;;;;;4978427;28;20464;-71
2021/08/19 03:02:04;;;;;;;262.60;251.13;;;;;;;;;;4979448;28;20485;-72
2021/08/19 03:04:31;;;;;;;256.57;245.17;;;;;;;;;;4978906;28;20451;-71
2021/08/19 03:06:58;;;;;;;257.57;246.27;;;;;;;;;;4980907;28;20847;-72
2021/08/19 03:09:25;;;;;;;248.43;237.57;;;;;;;;;;4979426;28;20447;-72
2021/08/19 03:11:54;;;;;;;263.17;251.17;;;;;;;;;;4978596;28;20511;-72
2021/08/19 03:14:21;;;;;;;238.80;227.47;;;;;;;;;;4974887;28;20866;-71
2021/08/19 03:16:48;;;;;;;227.57;214.97;;;;;;;;;;4955477;29;20468;-71
2021/08/19 03:19:15;;;;;;;234.60;221.93;;;;;;;;;;4955150;29;20463;-71
2021/08/19 03:21:43;;;;;;;205.40;193.20;;;;;;;;;;4973033;28;20491;-71
2021/08/19 03:24:10;;;;;;;183.10;171.43;;;;;;;;;;4973493;28;20456;-71
2021/08/19 03:26:37;;;;;;;161.93;151.13;;;;;;;;;;4973378;28;20501;-72
2021/08/19 03:29:05;;;;;;;157.43;146.50;;;;;;;;;;4974028;28;20458;-71
2021/08/19 03:31:32;;;;;;;161.90;151.03;;;;;;;;;;4970855;28;20454;-71
2021/08/19 03:34:00;;;;;;;172.90;161.80;;;;;;;;;;4962589;28;20454;-71
2021/08/19 03:36:27;;;;;;;164.27;153.33;;;;;;;;;;4973080;28;20482;-69
2021/08/19 03:38:54;;;;;;;167.17;155.70;;;;;;;;;;4973091;28;20455;-69
2021/08/19 03:41:21;;;;;;;152.17;141.50;;;;;;;;;;4973457;28;20483;-69
2021/08/19 03:43:49;;;;;;;161.00;150.13;;;;;;;;;;4967098;28;20457;-69
2021/08/19 03:46:18;;;;;;;150.63;140.10;;;;;;;;;;4986056;22;20495;-65
2021/08/19 03:48:46;;;;;;;150.13;139.70;;;;;;;;;;4981231;28;20474;-68
2021/08/19 03:51:13;;;;;;;141.97;131.67;;;;;;;;;;4983240;28;20449;-67
2021/08/19 03:53:40;;;;;;;156.17;145.33;;;;;;;;;;4991239;28;20462;-67
2021/08/19 03:56:07;;;;;;;144.80;134.10;;;;;;;;;;4992582;28;20475;-67
2021/08/19 03:58:36;;;;;;;143.60;133.20;;;;;;;;;;4992072;28;20471;-67
2021/08/19 04:01:03;;;;;;;145.30;134.67;;;;;;;;;;4992124;28;20482;-67
2021/08/19 04:03:32;;;;;;;145.60;134.93;;;;;;;;;;4991195;28;20458;-67
2021/08/19 04:05:59;;;;;;;145.23;134.70;;;;;;;;;;4972940;28;20464;-67
2021/08/19 04:08:26;;;;;;;132.90;123.00;;;;;;;;;;4973248;28;20844;-68
2021/08/19 04:10:53;;;;;;;127.50;118.00;;;;;;;;;;4992187;28;20454;-67
2021/08/19 04:13:20;;;;;;;128.40;118.80;;;;;;;;;;4992548;28;20442;-67
2021/08/19 04:15:47;;;;;;;122.43;112.93;;;;;;;;;;4992375;28;20458;-68
2021/08/19 04:18:16;;;;;;;128.90;118.87;;;;;;;;;;4992401;28;20458;-67
2021/08/19 04:20:44;;;;;;;121.43;111.93;;;;;;;;;;4991508;28;20486;-67
2021/08/19 04:23:11;;;;;;;121.90;112.33;;;;;;;;;;4991937;28;20465;-67
2021/08/19 04:25:39;;;;;;;120.37;110.93;;;;;;;;;;4992284;28;20458;-67
2021/08/19 04:28:06;;;;;;;129.40;120.10;;;;;;;;;;4992372;28;20455;-68
2021/08/19 04:30:33;;;;;;;127.63;118.13;;;;;;;;;;4978036;28;20871;-67
2021/08/19 04:33:00;;;;;;;121.43;112.27;;;;;;;;;;4991813;28;20465;-67
2021/08/19 04:35:30;;;;;;;141.13;131.03;;;;;;;;;;4985287;28;20541;-67
2021/08/19 04:37:58;;;;;;;129.17;119.00;;;;;;;;;;4991836;28;20474;-67
2021/08/19 04:40:26;;;;;;;127.00;117.30;;;;;;;;;;4991135;28;20825;-67
2021/08/19 04:42:53;;;;;;;126.60;116.60;;;;;;;;;;4994749;28;20454;-67
2021/08/19 04:45:20;;;;;;;136.30;125.70;;;;;;;;;;4994537;28;20458;-67
2021/08/19 04:47:47;;;;;;;135.50;125.60;;;;;;;;;;4995805;28;20912;-68
2021/08/19 04:50:14;;;;;;;139.47;129.17;;;;;;;;;;4994148;28;20454;-67
2021/08/19 04:52:41;;;;;;;138.40;128.00;;;;;;;;;;4995264;28;20461;-67
2021/08/19 04:55:11;;;;;;;143.57;133.00;;;;;;;;;;4995513;28;20454;-67
2021/08/19 04:57:38;;;;;;;148.30;137.77;;;;;;;;;;4995986;28;20470;-67
2021/08/19 05:00:05;;;;;;;142.67;132.37;;;;;;;;;;4995390;28;20806;-67
2021/08/19 05:02:32;;;;;;;133.33;123.13;;;;;;;;;;4995564;28;20589;-68
2021/08/19 05:05:00;;;;;;;125.93;116.30;;;;;;;;;;4982286;28;20465;-65
2021/08/19 05:07:27;;;;;;;122.03;112.37;;;;;;;;;;4984410;28;20490;-67
2021/08/19 05:09:54;;;;;;;131.97;121.30;;;;;;;;;;4995508;28;20461;-64
2021/08/19 05:12:22;;;;;;;155.03;142.47;;;;;;;;;;4995375;28;20457;-66
2021/08/19 05:14:49;;;;;;;205.00;190.00;;;;;;;;;;4995517;28;20458;-66
2021/08/19 05:17:16;;;;;;;285.57;268.60;;;;;;;;;;4995444;28;20485;-63
2021/08/19 05:19:44;;;;;;;303.93;284.73;;;;;;;;;;4996045;28;20489;-66
2021/08/19 05:22:11;;;;;;;353.37;332.60;;;;;;;;;;4995100;28;20488;-66
2021/08/19 05:24:38;;;;;;;475.87;439.03;;;;;;;;;;4995056;28;20743;-66
2021/08/19 05:27:05;;;;;;;389.00;366.60;;;;;;;;;;4995072;28;20474;-64
2021/08/19 05:29:34;;;;;;;425.03;402.13;;;;;;;;;;4994517;28;20462;-64
2021/08/19 05:32:01;;;;;;;448.80;424.93;;;;;;;;;;4994487;28;20461;-66
2021/08/19 05:34:28;;;;;;;427.37;405.13;;;;;;;;;;4995115;28;20442;-66
2021/08/19 05:36:55;;;;;;;382.47;361.70;;;;;;;;;;4995190;28;20471;-66
2021/08/19 05:39:22;;;;;;;398.60;378.20;;;;;;;;;;4995188;28;20454;-65
2021/08/19 05:41:49;;;;;;;374.33;355.50;;;;;;;;;;4994325;28;20485;-66
2021/08/19 05:44:16;;;;;;;336.27;317.77;;;;;;;;;;4993364;28;20780;-66
2021/08/19 05:46:45;;;;;;;310.37;292.57;;;;;;;;;;4984380;28;20494;-66
2021/08/19 05:49:12;;;;;;;306.20;289.10;;;;;;;;;;4993636;28;20464;-65
2021/08/19 05:51:39;;;;;;;283.83;267.13;;;;;;;;;;4993393;28;20804;-67
2021/08/19 05:54:06;;;;;;;284.93;268.83;;;;;;;;;;4992989;28;20462;-69
2021/08/19 05:56:33;;;;;;;309.17;292.60;;;;;;;;;;4994504;28;20479;-66
2021/08/19 05:59:00;;;;;;;319.47;302.23;;;;;;;;;;4994274;28;20465;-67
2021/08/19 06:01:27;;;;;;;298.23;281.57;;;;;;;;;;4994331;28;20485;-66
2021/08/19 06:03:56;;;;;;;304.20;287.70;;;;;;;;;;4994464;28;20450;-67
2021/08/19 06:06:23;;;;;;;299.27;283.17;;;;;;;;;;4994336;28;20817;-66
2021/08/19 06:08:50;;;;;;;304.40;287.07;;;;;;;;;;4994068;28;20557;-66
2021/08/19 06:11:17;;;;;;;295.97;278.60;;;;;;;;;;4994287;28;20446;-68
2021/08/19 06:13:44;;;;;;;305.93;288.83;;;;;;;;;;4994097;28;20465;-67
2021/08/19 06:16:11;;;;;;;304.57;287.67;;;;;;;;;;4994017;28;20840;-67
2021/08/19 06:18:39;;;;;;;260.83;246.73;;;;;;;;;;4993845;28;20545;-68
2021/08/19 06:21:07;;;;;;;212.70;200.00;;;;;;;;;;4994118;28;20581;-68
2021/08/19 06:23:34;;;;;;;191.10;178.80;;;;;;;;;;4994019;28;20455;-71
2021/08/19 06:26:01;;;;;;;171.07;158.87;;;;;;;;;;4994186;28;20849;-70
2021/08/19 06:28:28;;;;;;;176.53;164.90;;;;;;;;;;4994077;28;20468;-70
2021/08/19 06:30:56;;;;;;;177.87;165.90;;;;;;;;;;4993762;28;20459;-69
2021/08/19 06:33:23;;;;;;;187.87;175.20;;;;;;;;;;4993805;28;20954;-70
2021/08/19 06:35:50;;;;;;;184.87;172.20;;;;;;;;;;4994001;28;20450;-68
2021/08/19 06:38:18;;;;;;;176.17;163.67;;;;;;;;;;4993826;28;20451;-70
2021/08/19 06:40:45;;;;;;;184.37;172.60;;;;;;;;;;4993475;28;20824;-70
2021/08/19 06:43:13;;;;;;;181.07;169.07;;;;;;;;;;4994349;28;20486;-70
2021/08/19 06:45:40;;;;;;;191.30;178.80;;;;;;;;;;4993663;28;20821;-68
2021/08/19 06:48:07;;;;;;;172.20;159.63;;;;;;;;;;4993418;28;20446;-68
2021/08/19 06:50:34;;;;;;;173.10;161.00;;;;;;;;;;4992860;28;20912;-68
2021/08/19 06:53:01;;;;;;;178.27;166.63;;;;;;;;;;4993973;28;20441;-68
2021/08/19 06:55:30;;;;;;;173.27;161.33;;;;;;;;;;4993633;28;20450;-69
2021/08/19 06:57:57;;;;;;;315.03;296.97;;;;;;;;;;4993577;28;20463;-69
2021/08/19 07:00:24;;;;;;;298.70;281.67;;;;;;;;;;4993253;28;20450;-69
2021/08/19 07:02:51;;;;;;;320.40;302.20;;;;;;;;;;4993406;28;20572;-69
2021/08/19 07:05:19;;;;;;;321.30;302.93;;;;;;;;;;4993014;28;20450;-69
2021/08/19 07:07:46;;;;;;;300.37;282.53;;;;;;;;;;4993623;28;20477;-69
2021/08/19 07:10:13;;;;;;;306.23;288.93;;;;;;;;;;4992784;28;20450;-69
2021/08/19 07:12:41;;;;;;;332.53;312.83;;;;;;;;;;4993192;28;20950;-69
2021/08/19 07:15:09;;;;;;;332.03;312.37;;;;;;;;;;4992906;28;20454;-69
2021/08/19 07:17:36;;;;;;;339.33;319.13;;;;;;;;;;4993099;28;20889;-69
2021/08/19 07:20:04;;;;;;;335.17;314.87;;;;;;;;;;4993213;28;20454;-69
2021/08/19 07:22:31;;;;;;;332.27;312.50;;;;;;;;;;4992820;28;20493;-69
2021/08/19 07:24:58;;;;;;;330.47;309.57;;;;;;;;;;4992922;28;20458;-69
2021/08/19 07:27:25;;;;;;;343.97;322.73;;;;;;;;;;4992558;28;20928;-69
2021/08/19 07:29:53;;;;;;;340.30;318.63;;;;;;;;;;4993119;28;20454;-68
2021/08/19 07:32:21;;;;;;;362.17;337.97;;;;;;;;;;4992900;28;20549;-69
2021/08/19 07:34:48;;;;;;;371.03;345.93;;;;;;;;;;4992996;28;20821;-68
2021/08/19 07:37:15;;;;;;;376.73;351.63;;;;;;;;;;4992811;28;20512;-68
2021/08/19 07:39:42;;;;;;;371.00;347.23;;;;;;;;;;4992835;28;20451;-69
2021/08/19 07:42:09;;;;;;;373.77;349.67;;;;;;;;;;4991894;28;20851;-68
2021/08/19 07:44:36;;;;;;;377.30;353.27;;;;;;;;;;4992833;28;20447;-68
2021/08/19 07:47:05;;;;;;;356.97;334.27;;;;;;;;;;4992110;28;20941;-69
2021/08/19 07:49:32;;;;;;;392.53;367.10;;;;;;;;;;4992665;28;20453;-68
2021/08/19 07:51:59;;;;;;;256.80;241.53;;;;;;;;;;4992285;28;20926;-67
2021/08/19 07:54:27;;;;;;;376.93;353.27;;;;;;;;;;4992458;28;20455;-68
2021/08/19 07:56:54;;;;;;;355.63;334.43;;;;;;;;;;4992356;28;20486;-68
2021/08/19 07:59:21;;;;;;;368.40;347.00;;;;;;;;;;4992016;28;20588;-69
2021/08/19 08:01:48;;;;;;;367.27;345.70;;;;;;;;;;4992372;28;20490;-68
2021/08/19 08:04:16;;;;;;;350.50;330.10;;;;;;;;;;4992558;28;20454;-70
2021/08/19 08:06:44;;;;;;;247.37;231.90;;;;;;;;;;4992414;28;20470;-70
2021/08/19 08:09:12;;;;;;;372.00;348.70;;;;;;;;;;4991843;28;20462;-69
2021/08/19 08:11:39;;;;;;;343.17;322.17;;;;;;;;;;4992304;28;20462;-69
2021/08/19 08:14:06;;;;;;;371.33;347.53;;;;;;;;;;4992199;28;20840;-68
2021/08/19 08:16:33;;;;;;;360.23;338.40;;;;;;;;;;4991399;28;20605;-70
2021/08/19 08:19:02;;;;;;;357.87;335.27;;;;;;;;;;4992506;28;20466;-69
2021/08/19 08:21:30;;;;;;;348.00;326.07;;;;;;;;;;4991347;28;21011;-70
2021/08/19 08:23:59;;;;;;;350.33;329.63;;;;;;;;;;4992194;28;20541;-70
2021/08/19 08:26:27;;;;;;;321.07;301.77;;;;;;;;;;4991844;28;20884;-69
2021/08/19 08:28:56;;;;;;;311.30;292.97;;;;;;;;;;4992457;28;20988;-70
2021/08/19 08:31:23;;;;;;;322.00;303.20;;;;;;;;;;4976431;28;20463;-70
2021/08/19 08:33:51;;;;;;;296.23;278.00;;;;;;;;;;4992335;28;20985;-70
2021/08/19 08:36:18;;;;;;;301.40;283.43;;;;;;;;;;4992291;28;20852;-70
2021/08/19 08:38:47;;;;;;;332.33;313.07;;;;;;;;;;4992127;28;20458;-67
2021/08/19 08:41:15;;;;;;;330.53;311.63;;;;;;;;;;4991913;28;20806;-69
2021/08/19 08:43:42;;;;;;;280.20;263.60;;;;;;;;;;4992196;28;20493;-67
2021/08/19 08:46:10;;;;;;;316.60;298.50;;;;;;;;;;4991106;28;20486;-68
2021/08/19 08:48:38;;;;;;;311.77;293.63;;;;;;;;;;4992092;28;20943;-68
2021/08/19 08:51:05;;;;;;;315.07;296.07;;;;;;;;;;4992012;28;20465;-68
2021/08/19 08:53:32;;;;;;;298.67;280.77;;;;;;;;;;4991737;28;20451;-68
2021/08/19 08:56:01;;;;;;;337.83;318.30;;;;;;;;;;4991694;28;20478;-67
2021/08/19 08:58:28;;;;;;;305.93;287.63;;;;;;;;;;4991878;28;20446;-67
2021/08/19 09:00:55;;;;;;;354.77;333.57;;;;;;;;;;4991395;28;20443;-68
2021/08/19 09:03:23;;;;;;;341.90;320.90;;;;;;;;;;4991970;28;20508;-67
2021/08/19 09:05:51;;;;;;;378.33;354.53;;;;;;;;;;4991478;28;20482;-68
2021/08/19 09:08:19;;;;;;;391.10;366.37;;;;;;;;;;4992078;28;20884;-67
2021/08/19 09:10:47;;;;;;;301.13;282.73;;;;;;;;;;4991375;28;20489;-67
2021/08/19 09:13:16;;;;;;;382.60;355.87;;;;;;;;;;4991934;28;20451;-67
2021/08/19 09:15:44;;;;;;;383.50;357.93;;;;;;;;;;4991278;28;20456;-68
2021/08/19 09:18:12;;;;;;;371.53;346.67;;;;;;;;;;4991582;28;20459;-67
2021/08/19 09:20:39;;;;;;;360.83;336.93;;;;;;;;;;4991305;28;20451;-67
2021/08/19 09:23:07;;;;;;;325.30;303.50;;;;;;;;;;4991428;28;20512;-67
2021/08/19 09:25:35;;;;;;;318.87;299.00;;;;;;;;;;4991772;28;20458;-67
2021/08/19 09:28:09;;;;;;;328.70;309.70;;;;;;;;;;4991428;28;20479;-67
2021/08/19 09:30:38;;;;;;;283.43;265.63;;;;;;;;;;4995062;28;20462;-68
2021/08/19 09:33:05;;;;;;;298.47;280.27;;;;;;;;;;4994631;28;20446;-67
2021/08/19 09:35:33;;;;;;;200.10;187.47;;;;;;;;;;4994975;28;20454;-68
2021/08/19 09:38:06;;;;;;;337.57;317.17;;;;;;;;;;4995182;28;20466;-68
2021/08/19 09:40:33;;;;;;;331.07;312.17;;;;;;;;;;4994766;28;20513;-68
2021/08/19 09:43:00;;;;;;;222.00;208.27;;;;;;;;;;4994967;28;20478;-67
2021/08/19 09:45:27;;;;;;;212.37;198.63;;;;;;;;;;4994642;28;20455;-67
2021/08/19 09:48:08;;;;;;;241.90;227.70;;;;;;;;;;4994230;28;20569;-67
2021/08/19 09:50:35;;;;;;;255.90;240.83;;;;;;;;;;4994409;28;20458;-68
2021/08/19 09:53:15;;;;;;;239.57;224.00;;;;;;;;;;4994904;28;20450;-67
2021/08/19 09:55:42;;;;;;;233.37;218.83;;;;;;;;;;4994359;28;20509;-69
2021/08/19 09:58:10;;;;;;;212.43;198.77;;;;;;;;;;5016635;22;20505;-72
2021/08/19 10:00:38;;;;;;;230.40;216.10;;;;;;;;;;4995322;28;20486;-71
2021/08/19 10:03:08;;;;;;;225.13;211.37;;;;;;;;;;4995394;28;20492;-76
2021/08/19 10:05:35;;;;;;;253.70;239.00;;;;;;;;;;4995797;28;20457;-72
2021/08/19 10:08:03;;;;;;;248.83;234.10;;;;;;;;;;4995265;28;20481;-73
2021/08/19 10:10:30;;;;;;;263.57;247.97;;;;;;;;;;4995148;28;20460;-76
2021/08/19 10:12:59;;;;;;;249.23;234.23;;;;;;;;;;4994935;28;20533;-73
2021/08/19 10:15:27;;;;;;;228.20;214.70;;;;;;;;;;4994965;28;20832;-74
2021/08/19 10:17:55;;;;;;;217.07;203.47;;;;;;;;;;4985337;28;20483;-64
2021/08/19 10:20:26;;;;;;;226.73;212.90;;;;;;;;;;4992665;28;20477;-64
2021/08/19 10:22:55;;;;;;;252.03;237.63;;;;;;;;;;4993205;28;20494;-64
2021/08/19 10:25:26;;;;;;;225.43;211.33;;;;;;;;;;4980449;28;21033;-64
2021/08/19 10:28:08;;;;;;;213.67;200.57;;;;;;;;;;4992729;28;20486;-64
2021/08/19 10:30:46;;;;;;;244.30;229.90;;;;;;;;;;4993647;28;20455;-63
2021/08/19 10:33:33;;;;;;;241.87;227.50;;;;;;;;;;4991817;28;20466;-64
2021/08/19 10:36:02;;;;;;;237.20;222.60;;;;;;;;;;4991413;28;20466;-63
2021/08/19 10:38:29;;;;;;;252.10;236.77;;;;;;;;;;4993792;28;20978;-63
2021/08/19 10:40:56;;;;;;;237.90;223.27;;;;;;;;;;4991717;28;20477;-63
2021/08/19 10:43:47;;;;;;;259.80;243.87;;;;;;;;;;4991225;28;20493;-62
2021/08/19 10:46:18;;;;;;;257.90;241.33;;;;;;;;;;4991325;28;20453;-63
2021/08/19 10:48:46;;;;;;;293.67;276.53;;;;;;;;;;4975770;28;20487;-62
2021/08/19 10:51:15;;;;;;;292.77;275.07;;;;;;;;;;4993914;28;20954;-64
2021/08/19 10:53:42;;;;;;;322.50;303.30;;;;;;;;;;4991497;28;20465;-65
2021/08/19 10:56:10;;;;;;;325.67;306.20;;;;;;;;;;4989909;28;20553;-62
2021/08/19 10:58:37;;;;;;;322.43;303.03;;;;;;;;;;4993253;28;20486;-62
2021/08/19 11:01:20;;;;;;;343.40;322.67;;;;;;;;;;4988790;28;20853;-62
2021/08/19 11:03:47;;;;;;;357.80;337.77;;;;;;;;;;4991211;28;20490;-63
2021/08/19 11:06:17;;;;;;;343.57;322.93;;;;;;;;;;4993131;28;21094;-62
2021/08/19 11:08:51;;;;;;;372.23;350.87;;;;;;;;;;4992429;28;20470;-63
2021/08/19 11:11:26;;;;;;;365.07;344.00;;;;;;;;;;4993077;28;20926;-62
2021/08/19 11:13:58;;;;;;;362.93;341.30;;;;;;;;;;4992154;28;20447;-61
2021/08/19 11:16:26;;;;;;;358.97;337.93;;;;;;;;;;4994098;28;20427;-61
2021/08/19 11:18:53;;;;;;;383.47;360.50;;;;;;;;;;4993140;28;20447;-61
2021/08/19 11:21:21;;;;;;;403.00;381.73;;;;;;;;;;5000173;28;20548;-61
2021/08/19 11:23:48;;;;;;;404.27;382.67;;;;;;;;;;5013789;28;20478;-61
2021/08/19 11:26:18;;;;;;;401.47;380.57;;;;;;;;;;4989184;28;20846;-61
2021/08/19 11:28:46;;;;;;;407.17;386.37;;;;;;;;;;5001964;28;20502;-62
2021/08/19 11:31:15;;;;;;;403.67;383.50;;;;;;;;;;5001051;28;20469;-61
2021/08/19 11:33:42;;;;;;;361.40;341.83;;;;;;;;;;4999129;28;20466;-60
2021/08/19 11:36:10;;;;;;;391.90;372.90;;;;;;;;;;4995145;28;20480;-59
2021/08/19 11:38:41;;;;;;;395.00;375.37;;;;;;;;;;4991497;28;20859;-61
2021/08/19 11:41:15;;;;;;;379.73;360.07;;;;;;;;;;4974886;28;20458;-61
2021/08/19 11:43:43;;;;;;;344.33;326.73;;;;;;;;;;4989087;28;20486;-61
2021/08/19 11:46:11;;;;;;;327.87;310.87;;;;;;;;;;4992511;28;20963;-61
2021/08/19 11:48:39;;;;;;;353.37;334.80;;;;;;;;;;4991490;28;20538;-61
2021/08/19 11:51:07;;;;;;;374.43;355.20;;;;;;;;;;4989674;28;20473;-61
2021/08/19 11:53:34;;;;;;;350.47;331.93;;;;;;;;;;4993385;28;20493;-62
2021/08/19 11:56:13;;;;;;;348.43;330.83;;;;;;;;;;4992770;28;20957;-63
2021/08/19 11:58:40;;;;;;;345.00;328.40;;;;;;;;;;4991012;28;20493;-64
2021/08/19 12:01:08;;;;;;;332.53;315.33;;;;;;;;;;4988398;28;20480;-62
2021/08/19 12:03:36;;;;;;;331.87;315.47;;;;;;;;;;4991407;28;20487;-61
2021/08/19 12:06:07;;;;;;;320.77;305.00;;;;;;;;;;4989279;28;20493;-62
2021/08/19 12:08:35;;;;;;;324.60;306.80;;;;;;;;;;4998201;28;20474;-60
2021/08/19 12:11:07;;;;;;;341.00;322.90;;;;;;;;;;4990455;28;21004;-59
2021/08/19 12:13:36;;;;;;;345.03;326.63;;;;;;;;;;4991394;28;20462;-64
2021/08/19 12:16:03;;;;;;;338.73;319.93;;;;;;;;;;4988585;28;20450;-60
2021/08/19 12:18:30;;;;;;;335.60;317.43;;;;;;;;;;4992266;28;20475;-62
2021/08/19 12:21:14;;;;;;;332.07;313.90;;;;;;;;;;4992077;28;20964;-61
2021/08/19 12:23:41;;;;;;;342.83;324.83;;;;;;;;;;4991992;28;20486;-62
2021/08/19 12:26:09;;;;;;;352.27;333.87;;;;;;;;;;4992177;28;21009;-63
2021/08/19 12:28:37;;;;;;;335.10;316.77;;;;;;;;;;4992611;28;20485;-62
2021/08/19 12:31:08;;;;;;;337.63;319.67;;;;;;;;;;4991849;28;20835;-62
2021/08/19 12:33:37;;;;;;;323.93;305.43;;;;;;;;;;4992278;28;20481;-62
2021/08/19 12:36:11;;;;;;;335.33;317.27;;;;;;;;;;4992193;28;20898;-62
2021/08/19 12:38:38;;;;;;;338.23;320.57;;;;;;;;;;4992104;28;20480;-63
2021/08/19 12:41:12;;;;;;;340.10;321.10;;;;;;;;;;4992094;28;20454;-62
2021/08/19 12:43:41;;;;;;;342.00;324.20;;;;;;;;;;4991894;28;20856;-62
2021/08/19 12:46:09;;;;;;;341.63;322.23;;;;;;;;;;4992154;28;20451;-61
2021/08/19 12:48:36;;;;;;;344.80;325.73;;;;;;;;;;4991619;28;20477;-61
2021/08/19 12:51:19;;;;;;;318.87;301.10;;;;;;;;;;4991857;28;20451;-62
2021/08/19 12:54:02;;;;;;;315.00;297.70;;;;;;;;;;4992196;28;20451;-63
2021/08/19 12:56:29;;;;;;;319.73;301.83;;;;;;;;;;4991937;28;20819;-62
2021/08/19 12:58:58;;;;;;;326.23;308.13;;;;;;;;;;4991994;28;20469;-62
2021/08/19 13:01:25;;;;;;;438.83;409.53;;;;;;;;;;4991663;28;20446;-63
2021/08/19 13:03:52;;;;;;;440.90;411.90;;;;;;;;;;4994588;28;20486;-62
2021/08/19 13:06:20;;;;;;;444.73;415.57;;;;;;;;;;4995901;28;20457;-62
2021/08/19 13:08:47;;;;;;;428.17;399.87;;;;;;;;;;4995726;28;20450;-62
2021/08/19 13:11:15;;;;;;;429.10;400.10;;;;;;;;;;4995527;28;20454;-62
2021/08/19 13:13:42;;;;;;;389.70;364.13;;;;;;;;;;4995275;28;20446;-62
2021/08/19 13:16:11;;;;;;;395.27;368.67;;;;;;;;;;4995373;28;20446;-62
2021/08/19 13:18:38;;;;;;;391.10;365.83;;;;;;;;;;4995705;28;20473;-62
2021/08/19 13:21:05;;;;;;;376.70;353.67;;;;;;;;;;4995559;28;20541;-62
2021/08/19 13:23:32;;;;;;;332.23;313.03;;;;;;;;;;4995274;28;20488;-62
2021/08/19 13:25:59;;;;;;;338.47;319.10;;;;;;;;;;4995359;28;21043;-62
2021/08/19 13:28:26;;;;;;;337.97;319.40;;;;;;;;;;4994909;28;21044;-62
2021/08/19 13:30:53;;;;;;;354.13;333.03;;;;;;;;;;4995427;28;20454;-62
2021/08/19 13:33:22;;;;;;;351.43;330.80;;;;;;;;;;4995268;28;20450;-62
2021/08/19 13:35:49;;;;;;;367.17;344.50;;;;;;;;;;4995179;28;20521;-62
2021/08/19 13:38:16;;;;;;;362.17;340.20;;;;;;;;;;4995297;28;20466;-62
2021/08/19 13:40:43;;;;;;;376.03;352.50;;;;;;;;;;4994825;28;20446;-62
2021/08/19 13:43:11;;;;;;;382.40;358.13;;;;;;;;;;4994892;28;20452;-62
2021/08/19 13:45:38;;;;;;;389.57;365.53;;;;;;;;;;4995337;28;20454;-62
2021/08/19 13:48:05;;;;;;;406.27;380.03;;;;;;;;;;4995024;28;20478;-62
2021/08/19 13:50:34;;;;;;;325.03;308.13;;;;;;;;;;4994861;28;20460;-62
2021/08/19 13:53:01;;;;;;;389.50;366.00;;;;;;;;;;4994889;28;20458;-62
2021/08/19 13:55:28;;;;;;;387.93;365.23;;;;;;;;;;4994985;28;20442;-62
2021/08/19 13:57:58;;;;;;;370.43;348.90;;;;;;;;;;4994240;28;20494;-62